Time;durP1;ratioP1;P1;durP2;ratioP2;P2;SDS_P1;SDS_P2;PMS_P1;PMS_P2;Temp;Humidity;BMP_temperature;BMP_pressure;BME280_temperature;BME280_humidity;BME280_pressure;Samples;Min_cycle;Max_cycle;Signal;HPM_P1;HPM_P2
2022/03/28 00:01:28;;;;;;;14.75;5.07;;;;;;;;;;4955667;29;20503;-63
2022/03/28 00:03:54;;;;;;;12.52;4.38;;;;;;;;;;4955634;29;20449;-63
2022/03/28 00:06:20;;;;;;;17.30;5.68;;;;;;;;;;4955557;29;20034;-63
2022/03/28 00:08:47;;;;;;;22.02;8.02;;;;;;;;;;4955622;29;20098;-63
2022/03/28 00:11:13;;;;;;;28.70;12.60;;;;;;;;;;4955520;29;20019;-63
2022/03/28 00:13:39;;;;;;;24.73;11.18;;;;;;;;;;4955654;29;20015;-63
2022/03/28 00:16:06;;;;;;;27.77;10.93;;;;;;;;;;4955480;29;20045;-63
2022/03/28 00:18:32;;;;;;;18.73;7.57;;;;;;;;;;4955264;29;20023;-63
2022/03/28 00:20:58;;;;;;;20.38;7.90;;;;;;;;;;4955629;29;20487;-63
2022/03/28 00:23:24;;;;;;;21.02;7.30;;;;;;;;;;4955360;29;20558;-63
2022/03/28 00:25:50;;;;;;;17.67;7.70;;;;;;;;;;4955622;29;20035;-63
2022/03/28 00:28:17;;;;;;;18.13;6.10;;;;;;;;;;4955386;28;20122;-63
2022/03/28 00:30:44;;;;;;;12.10;5.13;;;;;;;;;;4955411;29;20522;-63
2022/03/28 00:33:10;;;;;;;18.17;5.53;;;;;;;;;;4954833;28;20478;-63
2022/03/28 00:35:36;;;;;;;13.57;5.72;;;;;;;;;;4955245;29;20052;-63
2022/03/28 00:38:05;;;;;;;17.00;6.38;;;;;;;;;;4955196;29;20460;-63
2022/03/28 00:40:32;;;;;;;17.17;6.07;;;;;;;;;;4955254;29;20031;-63
2022/03/28 00:43:03;;;;;;;14.52;5.43;;;;;;;;;;4955114;29;20056;-63
2022/03/28 00:45:30;;;;;;;16.63;5.80;;;;;;;;;;4955239;29;20443;-63
2022/03/28 00:47:56;;;;;;;17.00;5.50;;;;;;;;;;4955073;29;20102;-63
2022/03/28 00:50:23;;;;;;;17.80;5.38;;;;;;;;;;4955262;29;20535;-63
2022/03/28 00:52:50;;;;;;;16.15;4.88;;;;;;;;;;4955236;29;20110;-63
2022/03/28 00:55:17;;;;;;;20.65;6.15;;;;;;;;;;4954754;29;20047;-63
2022/03/28 00:57:43;;;;;;;18.02;5.70;;;;;;;;;;4955168;29;20023;-63
2022/03/28 01:00:10;;;;;;;17.92;5.82;;;;;;;;;;4954871;29;20046;-63
2022/03/28 01:02:36;;;;;;;19.33;5.70;;;;;;;;;;4955152;29;20028;-63
2022/03/28 01:05:03;;;;;;;11.88;4.80;;;;;;;;;;4954879;29;20143;-63
2022/03/28 01:07:29;;;;;;;15.32;5.28;;;;;;;;;;4954838;29;20106;-63
2022/03/28 01:09:58;;;;;;;14.40;4.93;;;;;;;;;;4954434;29;20031;-63
2022/03/28 01:12:26;;;;;;;17.52;5.68;;;;;;;;;;4954614;29;20035;-63
2022/03/28 01:14:53;;;;;;;17.05;5.57;;;;;;;;;;4954615;29;20032;-63
2022/03/28 01:20:04;;;;;;;10.77;4.00;;;;;;;;;;4954697;29;20042;-63
2022/03/28 01:22:30;;;;;;;12.10;4.65;;;;;;;;;;4954199;29;20050;-63
2022/03/28 01:25:01;;;;;;;13.40;4.10;;;;;;;;;;4937206;29;20058;-63
2022/03/28 01:27:27;;;;;;;11.63;4.03;;;;;;;;;;4954133;29;20392;-63
2022/03/28 01:29:53;;;;;;;14.68;4.38;;;;;;;;;;4954216;28;20035;-63
2022/03/28 01:32:19;;;;;;;9.80;4.38;;;;;;;;;;4954281;29;20085;-61
2022/03/28 01:34:45;;;;;;;16.35;4.18;;;;;;;;;;4954022;29;20047;-62
2022/03/28 01:37:12;;;;;;;15.20;3.90;;;;;;;;;;4954180;29;20054;-63
2022/03/28 01:39:38;;;;;;;13.60;3.97;;;;;;;;;;4953959;29;20447;-63
2022/03/28 01:42:04;;;;;;;8.00;3.78;;;;;;;;;;4953978;29;20031;-64
2022/03/28 01:44:30;;;;;;;9.10;3.80;;;;;;;;;;4953865;28;20023;-63
2022/03/28 01:46:56;;;;;;;12.48;4.03;;;;;;;;;;4953370;29;20031;-62
2022/03/28 01:49:22;;;;;;;10.20;3.83;;;;;;;;;;4953932;29;20023;-63
2022/03/28 01:51:49;;;;;;;10.32;3.85;;;;;;;;;;4953809;29;20031;-64
2022/03/28 01:54:15;;;;;;;10.77;4.00;;;;;;;;;;4953817;29;20034;-64
2022/03/28 01:56:42;;;;;;;9.13;3.55;;;;;;;;;;4953772;29;20039;-60
2022/03/28 01:59:09;;;;;;;11.63;3.85;;;;;;;;;;4953575;29;20027;-61
2022/03/28 02:01:36;;;;;;;13.98;4.00;;;;;;;;;;4954856;29;20087;-60
2022/03/28 02:04:02;;;;;;;10.50;3.85;;;;;;;;;;4955635;29;20026;-60
2022/03/28 02:06:28;;;;;;;10.43;4.55;;;;;;;;;;4954323;29;20034;-60
2022/03/28 02:08:55;;;;;;;9.23;3.60;;;;;;;;;;4953700;29;20026;-59
2022/03/28 02:11:21;;;;;;;10.38;4.07;;;;;;;;;;4953494;29;20058;-59
2022/03/28 02:13:47;;;;;;;10.10;4.32;;;;;;;;;;4953642;29;20023;-59
2022/03/28 02:16:13;;;;;;;11.35;4.38;;;;;;;;;;4953367;29;20035;-59
2022/03/28 02:18:39;;;;;;;10.88;3.88;;;;;;;;;;4953608;29;20106;-59
2022/03/28 02:21:05;;;;;;;8.73;4.00;;;;;;;;;;4953575;29;20031;-60
2022/03/28 02:23:32;;;;;;;11.80;4.00;;;;;;;;;;4953446;29;20023;-59
2022/03/28 02:25:58;;;;;;;12.10;3.70;;;;;;;;;;4953432;29;20027;-59
2022/03/28 02:28:24;;;;;;;14.05;4.20;;;;;;;;;;4953469;28;20062;-59
2022/03/28 02:30:50;;;;;;;13.60;4.15;;;;;;;;;;4952922;29;20090;-59
2022/03/28 02:33:17;;;;;;;12.95;3.80;;;;;;;;;;4953271;29;20188;-59
2022/03/28 02:35:43;;;;;;;13.88;4.43;;;;;;;;;;4953132;29;20404;-60
2022/03/28 02:38:09;;;;;;;15.38;4.18;;;;;;;;;;4953143;29;20023;-60
2022/03/28 02:40:35;;;;;;;14.25;4.25;;;;;;;;;;4953106;29;20498;-59
2022/03/28 02:43:03;;;;;;;14.02;3.95;;;;;;;;;;4953004;29;20031;-59
2022/03/28 02:45:33;;;;;;;12.38;4.45;;;;;;;;;;4952622;29;20034;-59
2022/03/28 02:47:59;;;;;;;12.13;4.13;;;;;;;;;;4952691;29;20027;-59
2022/03/28 02:50:26;;;;;;;14.52;4.35;;;;;;;;;;4952709;29;20070;-59
2022/03/28 02:52:53;;;;;;;10.55;3.78;;;;;;;;;;4952770;29;20031;-59
2022/03/28 02:55:19;;;;;;;9.40;3.40;;;;;;;;;;4952379;29;20038;-60
2022/03/28 02:57:45;;;;;;;9.52;3.60;;;;;;;;;;4952513;29;20063;-60
2022/03/28 03:00:11;;;;;;;11.95;3.45;;;;;;;;;;4952381;29;20039;-59
2022/03/28 03:02:41;;;;;;;8.43;3.83;;;;;;;;;;4952923;29;20691;-60
2022/03/28 03:05:08;;;;;;;8.80;3.05;;;;;;;;;;4952742;29;20504;-59
2022/03/28 03:07:34;;;;;;;8.73;3.38;;;;;;;;;;4952730;29;20037;-61
2022/03/28 03:10:00;;;;;;;7.45;2.97;;;;;;;;;;4952688;29;20038;-60
2022/03/28 03:12:26;;;;;;;10.43;3.38;;;;;;;;;;4952658;29;20034;-59
2022/03/28 03:14:53;;;;;;;12.20;3.75;;;;;;;;;;4952625;29;20109;-58
2022/03/28 03:17:19;;;;;;;9.52;3.22;;;;;;;;;;4952424;29;20395;-58
2022/03/28 03:19:45;;;;;;;10.05;3.28;;;;;;;;;;4952933;29;20051;-58
2022/03/28 03:22:14;;;;;;;13.40;3.22;;;;;;;;;;4952713;29;20487;-58
2022/03/28 03:24:41;;;;;;;8.38;3.25;;;;;;;;;;4952606;29;20031;-58
2022/03/28 03:27:07;;;;;;;9.45;3.90;;;;;;;;;;4952403;29;20071;-58
2022/03/28 03:29:34;;;;;;;9.98;3.83;;;;;;;;;;4952216;28;20031;-59
2022/03/28 03:32:00;;;;;;;8.43;3.95;;;;;;;;;;4952599;29;20043;-59
2022/03/28 03:34:27;;;;;;;9.68;3.67;;;;;;;;;;4952379;29;20492;-58
2022/03/28 03:36:53;;;;;;;10.15;3.75;;;;;;;;;;4952227;29;20039;-58
2022/03/28 03:39:22;;;;;;;24.65;5.30;;;;;;;;;;4952654;29;20722;-57
2022/03/28 03:41:48;;;;;;;8.95;3.67;;;;;;;;;;4952465;29;20476;-59
2022/03/28 03:44:14;;;;;;;10.52;3.20;;;;;;;;;;4952627;29;20251;-58
2022/03/28 03:46:40;;;;;;;21.25;4.40;;;;;;;;;;4952481;29;20062;-59
2022/03/28 03:49:08;;;;;;;13.60;4.30;;;;;;;;;;4952544;29;20086;-58
2022/03/28 03:51:34;;;;;;;7.28;2.95;;;;;;;;;;4952569;29;20031;-60
2022/03/28 03:54:00;;;;;;;11.05;3.20;;;;;;;;;;4952465;29;20038;-58
2022/03/28 03:56:28;;;;;;;12.00;3.42;;;;;;;;;;4952495;29;20047;-58
2022/03/28 03:58:54;;;;;;;7.05;2.60;;;;;;;;;;4952376;29;20499;-58
2022/03/28 04:01:21;;;;;;;9.57;4.18;;;;;;;;;;4952576;29;20035;-58
2022/03/28 04:03:47;;;;;;;9.65;3.35;;;;;;;;;;4952365;29;20027;-58
2022/03/28 04:06:13;;;;;;;10.57;3.80;;;;;;;;;;4952119;29;20066;-59
2022/03/28 04:08:39;;;;;;;12.00;3.83;;;;;;;;;;4953331;28;20039;-60
2022/03/28 04:11:06;;;;;;;10.23;3.63;;;;;;;;;;4955719;29;20035;-60
2022/03/28 04:13:32;;;;;;;11.95;3.70;;;;;;;;;;4955430;29;20377;-58
2022/03/28 04:15:59;;;;;;;9.80;3.92;;;;;;;;;;4955523;29;20061;-59
2022/03/28 04:18:25;;;;;;;9.90;3.67;;;;;;;;;;4955358;29;20028;-62
2022/03/28 04:20:52;;;;;;;6.15;3.05;;;;;;;;;;4955419;29;20028;-59
2022/03/28 04:23:18;;;;;;;8.25;3.40;;;;;;;;;;4955537;29;20025;-60
2022/03/28 04:25:45;;;;;;;10.57;3.42;;;;;;;;;;4937561;29;20553;-58
2022/03/28 04:28:11;;;;;;;15.35;3.90;;;;;;;;;;4955166;29;20027;-58
2022/03/28 04:30:37;;;;;;;12.02;4.30;;;;;;;;;;4954975;28;20035;-58
2022/03/28 04:33:04;;;;;;;14.57;4.28;;;;;;;;;;4955256;29;20070;-61
2022/03/28 04:35:30;;;;;;;16.58;5.68;;;;;;;;;;4954790;29;20043;-60
2022/03/28 04:37:57;;;;;;;18.08;5.60;;;;;;;;;;4955466;29;20436;-59
2022/03/28 04:40:23;;;;;;;12.90;4.78;;;;;;;;;;4955021;29;20027;-60
2022/03/28 04:42:49;;;;;;;14.93;5.30;;;;;;;;;;4954886;29;20031;-60
2022/03/28 04:45:15;;;;;;;14.52;5.00;;;;;;;;;;4954871;29;20038;-59
2022/03/28 04:47:41;;;;;;;19.98;5.00;;;;;;;;;;4955127;29;20058;-60
2022/03/28 04:50:08;;;;;;;18.67;5.47;;;;;;;;;;4955010;29;20365;-60
2022/03/28 04:52:34;;;;;;;19.60;5.80;;;;;;;;;;4954899;29;20027;-62
2022/03/28 04:55:01;;;;;;;17.65;5.40;;;;;;;;;;4954819;29;20038;-60
2022/03/28 04:57:27;;;;;;;18.52;5.97;;;;;;;;;;4954693;29;20106;-59
2022/03/28 04:59:53;;;;;;;20.92;7.07;;;;;;;;;;4954779;29;20027;-58
2022/03/28 05:02:20;;;;;;;25.15;7.43;;;;;;;;;;4954960;29;20082;-58
2022/03/28 05:04:46;;;;;;;16.17;6.15;;;;;;;;;;4954740;29;20079;-60
2022/03/28 05:07:12;;;;;;;16.63;7.05;;;;;;;;;;4954402;29;20038;-60
2022/03/28 05:09:38;;;;;;;20.08;7.18;;;;;;;;;;4954623;29;20098;-60
2022/03/28 05:12:05;;;;;;;18.58;6.53;;;;;;;;;;4954611;29;20028;-60
2022/03/28 05:14:31;;;;;;;15.55;5.70;;;;;;;;;;4954702;29;20031;-60
2022/03/28 05:16:57;;;;;;;14.98;5.60;;;;;;;;;;4954622;29;20046;-60
2022/03/28 05:19:23;;;;;;;18.42;6.53;;;;;;;;;;4954754;28;20027;-59
2022/03/28 05:21:49;;;;;;;21.33;6.68;;;;;;;;;;4954385;29;20059;-60
2022/03/28 05:24:15;;;;;;;17.83;6.18;;;;;;;;;;4954411;29;20027;-59
2022/03/28 05:26:41;;;;;;;15.60;6.47;;;;;;;;;;4954162;29;20050;-59
2022/03/28 05:29:07;;;;;;;17.90;6.82;;;;;;;;;;4953973;28;20149;-60
2022/03/28 05:31:33;;;;;;;14.07;5.85;;;;;;;;;;4953704;29;20035;-60
2022/03/28 05:34:00;;;;;;;20.33;6.20;;;;;;;;;;4954150;29;20047;-60
2022/03/28 05:36:26;;;;;;;22.92;6.40;;;;;;;;;;4954035;29;20046;-59
2022/03/28 05:38:52;;;;;;;18.25;6.05;;;;;;;;;;4953803;29;20563;-61
2022/03/28 05:41:18;;;;;;;14.70;6.30;;;;;;;;;;4953930;29;20086;-61
2022/03/28 05:43:44;;;;;;;21.15;6.25;;;;;;;;;;4953791;29;20106;-61
2022/03/28 05:46:11;;;;;;;16.77;6.38;;;;;;;;;;4953925;29;20690;-61
2022/03/28 05:48:37;;;;;;;15.38;5.30;;;;;;;;;;4953892;29;20031;-60
2022/03/28 05:51:04;;;;;;;12.30;5.35;;;;;;;;;;4953287;28;20019;-62
2022/03/28 05:53:30;;;;;;;18.65;6.13;;;;;;;;;;4952522;29;20102;-64
2022/03/28 05:55:56;;;;;;;18.33;5.72;;;;;;;;;;4952429;29;20070;-62
2022/03/28 05:58:22;;;;;;;22.83;6.07;;;;;;;;;;4952243;29;20079;-62
2022/03/28 06:00:48;;;;;;;16.23;6.07;;;;;;;;;;4952131;29;20042;-63
2022/03/28 06:03:14;;;;;;;20.10;7.05;;;;;;;;;;4951732;29;20035;-63
2022/03/28 06:05:40;;;;;;;17.75;6.18;;;;;;;;;;4952314;29;20055;-63
2022/03/28 06:08:07;;;;;;;14.88;6.25;;;;;;;;;;4952030;29;20027;-63
2022/03/28 06:10:34;;;;;;;12.30;5.22;;;;;;;;;;4952663;29;20027;-63
2022/03/28 06:13:00;;;;;;;12.80;4.55;;;;;;;;;;4952298;29;20383;-63
2022/03/28 06:15:26;;;;;;;11.70;5.10;;;;;;;;;;4949598;29;20066;-64
2022/03/28 06:17:53;;;;;;;12.77;5.50;;;;;;;;;;4952453;29;20502;-63
2022/03/28 06:20:20;;;;;;;17.92;5.63;;;;;;;;;;4952607;29;20436;-63
2022/03/28 06:22:46;;;;;;;22.10;7.07;;;;;;;;;;4949922;29;20046;-62
2022/03/28 06:25:12;;;;;;;14.32;6.07;;;;;;;;;;4953582;29;20110;-62
2022/03/28 06:27:43;;;;;;;12.05;5.75;;;;;;;;;;4953251;29;20051;-62
2022/03/28 06:30:11;;;;;;;11.57;6.13;;;;;;;;;;4952961;28;20063;-58
2022/03/28 06:32:37;;;;;;;14.82;5.40;;;;;;;;;;4952617;28;20036;-59
2022/03/28 06:35:04;;;;;;;15.77;7.45;;;;;;;;;;4953246;29;20495;-60
2022/03/28 06:37:31;;;;;;;21.80;6.90;;;;;;;;;;4953110;29;20162;-60
2022/03/28 06:39:57;;;;;;;12.38;6.05;;;;;;;;;;4952848;29;20059;-60
2022/03/28 06:42:23;;;;;;;18.13;6.00;;;;;;;;;;4952975;29;20114;-61
2022/03/28 06:44:49;;;;;;;17.80;6.03;;;;;;;;;;4952739;29;20075;-60
2022/03/28 06:47:15;;;;;;;15.68;5.35;;;;;;;;;;4952687;29;20035;-61
2022/03/28 06:49:41;;;;;;;14.23;4.45;;;;;;;;;;4952961;29;20030;-60
2022/03/28 06:52:07;;;;;;;10.98;4.68;;;;;;;;;;4952857;29;20023;-60
2022/03/28 06:54:34;;;;;;;10.75;4.47;;;;;;;;;;4953067;29;20086;-62
2022/03/28 06:57:00;;;;;;;11.48;3.88;;;;;;;;;;4952889;29;20043;-60
2022/03/28 06:59:26;;;;;;;8.68;3.95;;;;;;;;;;4952911;29;20083;-60
2022/03/28 07:01:54;;;;;;;11.02;3.13;;;;;;;;;;4953024;29;20049;-60
2022/03/28 07:04:21;;;;;;;9.70;2.90;;;;;;;;;;4952662;29;20026;-60
2022/03/28 07:06:47;;;;;;;10.13;3.40;;;;;;;;;;4952770;29;20027;-61
2022/03/28 07:09:13;;;;;;;10.63;3.40;;;;;;;;;;4952915;29;20101;-61
2022/03/28 07:11:40;;;;;;;9.55;3.50;;;;;;;;;;4952819;29;20654;-60
2022/03/28 07:14:07;;;;;;;8.50;2.90;;;;;;;;;;4952649;29;20042;-60
2022/03/28 07:16:33;;;;;;;9.13;2.90;;;;;;;;;;4952156;29;20028;-60
2022/03/28 07:18:59;;;;;;;8.10;3.22;;;;;;;;;;4952681;29;20361;-60
2022/03/28 07:21:25;;;;;;;7.53;3.50;;;;;;;;;;4952353;29;20396;-60
2022/03/28 07:23:52;;;;;;;7.20;2.97;;;;;;;;;;4951791;29;20399;-60
2022/03/28 07:26:19;;;;;;;9.95;3.15;;;;;;;;;;4952618;29;20028;-61
2022/03/28 07:28:45;;;;;;;13.88;3.25;;;;;;;;;;4951947;28;20079;-61
2022/03/28 07:31:11;;;;;;;11.05;3.83;;;;;;;;;;4952229;29;20428;-61
2022/03/28 07:33:41;;;;;;;7.90;2.90;;;;;;;;;;4952138;29;20055;-60
2022/03/28 07:36:08;;;;;;;7.85;3.42;;;;;;;;;;4952120;29;20038;-60
2022/03/28 07:38:34;;;;;;;7.00;2.90;;;;;;;;;;4952327;29;20038;-60
2022/03/28 07:41:01;;;;;;;9.68;3.30;;;;;;;;;;4951964;29;20114;-60
2022/03/28 07:43:27;;;;;;;11.90;3.58;;;;;;;;;;4953113;28;20500;-60
2022/03/28 07:45:54;;;;;;;10.38;3.33;;;;;;;;;;4955941;29;20019;-60
2022/03/28 07:48:21;;;;;;;11.32;3.22;;;;;;;;;;4956199;29;20027;-60
2022/03/28 07:50:47;;;;;;;9.85;3.63;;;;;;;;;;4955976;29;20051;-60
2022/03/28 07:53:14;;;;;;;7.00;3.78;;;;;;;;;;4956516;29;20074;-60
2022/03/28 07:55:40;;;;;;;8.65;3.75;;;;;;;;;;4956052;29;20039;-60
2022/03/28 07:58:10;;;;;;;13.85;4.35;;;;;;;;;;4955767;29;20023;-61
2022/03/28 08:00:37;;;;;;;12.93;3.70;;;;;;;;;;4955882;29;20035;-61
2022/03/28 08:03:04;;;;;;;8.73;3.42;;;;;;;;;;4955940;29;20035;-60
2022/03/28 08:05:30;;;;;;;9.20;4.00;;;;;;;;;;4955663;29;20038;-60
2022/03/28 08:07:56;;;;;;;11.05;3.83;;;;;;;;;;4955101;29;20036;-60
2022/03/28 08:10:23;;;;;;;10.52;4.18;;;;;;;;;;4955145;28;20479;-60
2022/03/28 08:12:50;;;;;;;10.57;4.25;;;;;;;;;;4958238;28;20031;-61
2022/03/28 08:15:17;;;;;;;9.48;3.63;;;;;;;;;;4955364;29;20475;-60
2022/03/28 08:17:43;;;;;;;8.25;3.58;;;;;;;;;;4954628;28;20542;-60
2022/03/28 08:20:10;;;;;;;12.35;3.70;;;;;;;;;;4955200;29;20110;-59
2022/03/28 08:22:36;;;;;;;7.82;2.90;;;;;;;;;;4964332;28;20029;-59
2022/03/28 08:25:03;;;;;;;9.63;3.55;;;;;;;;;;4961820;28;20020;-60
2022/03/28 08:27:29;;;;;;;10.73;3.45;;;;;;;;;;4970779;28;20494;-60
2022/03/28 08:29:55;;;;;;;6.25;2.50;;;;;;;;;;4958706;28;20237;-60
2022/03/28 08:32:21;;;;;;;9.30;3.13;;;;;;;;;;4967205;28;20039;-59
2022/03/28 08:34:48;;;;;;;9.25;3.00;;;;;;;;;;4965500;28;20042;-59
2022/03/28 08:37:16;;;;;;;7.50;2.78;;;;;;;;;;4960496;28;20090;-59
2022/03/28 08:39:43;;;;;;;10.25;3.60;;;;;;;;;;4943988;28;20059;-60
2022/03/28 08:42:11;;;;;;;11.85;4.10;;;;;;;;;;4954728;29;20019;-59
2022/03/28 08:44:38;;;;;;;7.78;3.20;;;;;;;;;;4963872;28;20074;-60
2022/03/28 08:47:05;;;;;;;11.50;3.63;;;;;;;;;;4960782;28;20031;-59
2022/03/28 08:49:31;;;;;;;8.27;3.15;;;;;;;;;;4970446;28;20027;-60
2022/03/28 08:51:57;;;;;;;7.55;3.75;;;;;;;;;;4958468;28;20401;-60
2022/03/28 08:54:23;;;;;;;11.50;3.88;;;;;;;;;;4966139;28;20134;-60
2022/03/28 08:56:49;;;;;;;8.27;3.30;;;;;;;;;;4965507;28;20089;-59
2022/03/28 08:59:15;;;;;;;9.50;3.55;;;;;;;;;;4958715;28;20035;-62
2022/03/28 09:01:44;;;;;;;9.27;3.83;;;;;;;;;;4970438;28;20043;-59
2022/03/28 09:04:10;;;;;;;7.95;3.70;;;;;;;;;;4960355;28;20050;-60
2022/03/28 09:06:38;;;;;;;8.07;3.38;;;;;;;;;;4964007;28;20031;-60
2022/03/28 09:09:14;;;;;;;10.95;2.95;;;;;;;;;;4954630;28;20023;-62
2022/03/28 09:11:42;;;;;;;10.73;4.00;;;;;;;;;;4958082;28;20031;-59
2022/03/28 09:14:10;;;;;;;9.75;3.97;;;;;;;;;;4968194;28;20031;-60
2022/03/28 09:16:36;;;;;;;11.20;3.63;;;;;;;;;;4963141;28;20093;-59
2022/03/28 09:19:12;;;;;;;9.02;3.55;;;;;;;;;;4960915;28;20028;-60
2022/03/28 09:21:38;;;;;;;6.95;3.60;;;;;;;;;;4969801;28;20031;-60
2022/03/28 09:24:05;;;;;;;10.45;3.33;;;;;;;;;;4958808;28;20479;-60
2022/03/28 09:26:31;;;;;;;8.88;3.35;;;;;;;;;;4964983;28;20035;-59
2022/03/28 09:29:00;;;;;;;7.95;3.00;;;;;;;;;;4965050;28;20042;-60
2022/03/28 09:31:43;;;;;;;12.55;4.22;;;;;;;;;;4957540;28;20372;-59
2022/03/28 09:34:09;;;;;;;;;;;;;;;;;;4935288;29;20432;-59
2022/03/28 09:36:38;;;;;;;9.93;3.13;;;;;;;;;;4934906;29;19979;-60
2022/03/28 09:39:09;;;;;;;7.95;2.90;;;;;;;;;;4934726;28;20070;-60
2022/03/28 09:41:35;;;;;;;6.40;2.97;;;;;;;;;;4953882;28;20035;-59
2022/03/28 09:44:01;;;;;;;7.40;2.78;;;;;;;;;;4969402;28;20030;-59
2022/03/28 09:46:28;;;;;;;6.75;2.97;;;;;;;;;;4959256;28;20031;-59
2022/03/28 09:48:57;;;;;;;7.80;3.42;;;;;;;;;;4963212;28;20035;-59
2022/03/28 09:51:25;;;;;;;8.00;3.40;;;;;;;;;;4957913;28;20028;-59
2022/03/28 09:53:51;;;;;;;8.88;3.55;;;;;;;;;;4953199;29;20042;-60
2022/03/28 09:56:18;;;;;;;10.13;3.25;;;;;;;;;;4958289;28;20039;-59
2022/03/28 09:59:04;;;;;;;7.10;3.15;;;;;;;;;;4964199;28;20032;-59
2022/03/28 10:01:31;;;;;;;9.60;3.20;;;;;;;;;;4968012;28;20114;-60
2022/03/28 10:04:05;;;;;;;6.85;3.00;;;;;;;;;;4956350;28;20020;-62
2022/03/28 10:06:35;;;;;;;9.15;3.20;;;;;;;;;;4965316;28;20047;-60
2022/03/28 10:09:01;;;;;;;7.80;3.53;;;;;;;;;;4952568;29;20031;-59
2022/03/28 10:11:28;;;;;;;10.32;3.35;;;;;;;;;;4953584;29;20106;-59
2022/03/28 10:13:54;;;;;;;8.38;3.38;;;;;;;;;;4953294;29;20057;-59
2022/03/28 10:16:20;;;;;;;7.65;3.25;;;;;;;;;;4953774;29;20423;-59
2022/03/28 10:18:49;;;;;;;8.52;2.95;;;;;;;;;;4953668;29;20079;-59
2022/03/28 10:21:30;;;;;;;7.70;2.88;;;;;;;;;;4953411;29;20038;-60
2022/03/28 10:24:02;;;;;;;7.30;3.05;;;;;;;;;;4953585;29;20027;-60
2022/03/28 10:26:30;;;;;;;7.30;2.95;;;;;;;;;;4953607;29;20035;-61
2022/03/28 10:29:09;;;;;;;7.43;2.92;;;;;;;;;;4953076;28;20019;-62
2022/03/28 10:31:56;;;;;;;6.00;3.00;;;;;;;;;;4953132;29;20045;-59
2022/03/28 10:34:45;;;;;;;9.65;3.25;;;;;;;;;;4953042;29;20040;-60
2022/03/28 10:37:28;;;;;;;9.15;3.45;;;;;;;;;;4943339;29;20130;-59
2022/03/28 10:40:13;;;;;;;7.13;3.22;;;;;;;;;;4953058;29;20487;-59
2022/03/28 10:42:45;;;;;;;6.88;2.78;;;;;;;;;;4952969;29;20035;-59
2022/03/28 10:45:16;;;;;;;9.43;3.72;;;;;;;;;;4952784;29;20578;-60
2022/03/28 10:47:42;;;;;;;9.05;3.03;;;;;;;;;;4953085;29;20082;-59
2022/03/28 10:50:09;;;;;;;9.00;2.80;;;;;;;;;;4952856;29;20031;-60
2022/03/28 10:52:36;;;;;;;5.97;2.75;;;;;;;;;;4952145;29;20403;-59
2022/03/28 10:55:09;;;;;;;8.18;2.65;;;;;;;;;;4952354;29;20098;-59
2022/03/28 10:57:36;;;;;;;5.57;2.58;;;;;;;;;;4952022;29;20496;-60
2022/03/28 11:00:08;;;;;;;6.40;2.80;;;;;;;;;;4952101;29;20034;-60
2022/03/28 11:02:34;;;;;;;7.05;2.92;;;;;;;;;;4952718;29;20090;-61
2022/03/28 11:05:08;;;;;;;6.68;2.80;;;;;;;;;;4952468;29;20035;-61
2022/03/28 11:07:34;;;;;;;7.70;3.05;;;;;;;;;;4952358;29;20028;-59
2022/03/28 11:10:01;;;;;;;6.72;2.63;;;;;;;;;;4952598;29;20395;-59
2022/03/28 11:12:34;;;;;;;6.78;3.22;;;;;;;;;;4952500;29;20391;-59
2022/03/28 11:15:00;;;;;;;4.88;3.03;;;;;;;;;;4952424;29;20031;-59
2022/03/28 11:17:35;;;;;;;7.95;3.10;;;;;;;;;;4954220;28;20027;-59
2022/03/28 11:20:07;;;;;;;6.85;2.80;;;;;;;;;;4959155;28;20551;-62
2022/03/28 11:22:45;;;;;;;5.00;2.67;;;;;;;;;;4959195;28;20019;-63
2022/03/28 11:25:30;;;;;;;5.93;2.63;;;;;;;;;;4959235;29;20514;-58
2022/03/28 11:28:11;;;;;;;6.82;2.63;;;;;;;;;;4959045;29;20075;-59
2022/03/28 11:30:39;;;;;;;13.55;4.93;;;;;;;;;;4958523;28;20039;-59
2022/03/28 11:33:10;;;;;;;8.30;3.10;;;;;;;;;;4958791;29;20147;-59
2022/03/28 11:35:37;;;;;;;7.15;2.92;;;;;;;;;;4958719;28;20464;-58
2022/03/28 11:38:04;;;;;;;6.03;2.70;;;;;;;;;;4958949;29;20030;-60
2022/03/28 11:40:37;;;;;;;4.60;2.70;;;;;;;;;;4958776;29;20424;-60
2022/03/28 11:43:03;;;;;;;6.03;2.65;;;;;;;;;;4958674;28;20066;-61
2022/03/28 11:45:31;;;;;;;5.63;2.60;;;;;;;;;;4958859;29;20031;-60
2022/03/28 11:47:59;;;;;;;6.45;2.85;;;;;;;;;;4958998;29;20031;-62
2022/03/28 11:50:29;;;;;;;5.78;2.70;;;;;;;;;;4958864;29;20047;-61
2022/03/28 11:52:55;;;;;;;5.40;2.50;;;;;;;;;;4958884;28;20220;-60
2022/03/28 11:55:24;;;;;;;6.03;2.75;;;;;;;;;;4958765;28;20039;-62
2022/03/28 12:00:36;;;;;;;12.05;3.10;;;;;;;;;;4958818;29;20050;-60
2022/03/28 12:03:03;;;;;;;5.55;2.70;;;;;;;;;;4958691;29;20547;-61
2022/03/28 12:05:29;;;;;;;5.82;2.63;;;;;;;;;;4958763;29;20045;-60
2022/03/28 12:07:55;;;;;;;6.93;3.00;;;;;;;;;;4958605;28;20035;-61
2022/03/28 12:10:25;;;;;;;5.25;2.58;;;;;;;;;;4958662;28;20059;-59
2022/03/28 12:12:51;;;;;;;7.07;2.70;;;;;;;;;;4958793;29;20432;-59
2022/03/28 12:15:24;;;;;;;5.45;2.53;;;;;;;;;;4958414;29;20031;-62
2022/03/28 12:17:54;;;;;;;5.50;2.58;;;;;;;;;;4958321;29;20031;-60
2022/03/28 12:20:26;;;;;;;5.57;2.70;;;;;;;;;;4958656;29;20019;-62
2022/03/28 12:22:52;;;;;;;6.63;2.40;;;;;;;;;;4958435;29;20037;-61
2022/03/28 12:25:29;;;;;;;7.22;2.40;;;;;;;;;;4958609;28;20110;-60
2022/03/28 12:27:56;;;;;;;5.90;2.50;;;;;;;;;;4958533;29;20106;-61
2022/03/28 12:30:29;;;;;;;6.15;2.65;;;;;;;;;;4954838;28;20042;-60
2022/03/28 12:32:55;;;;;;;6.10;3.30;;;;;;;;;;4955219;29;20519;-60
2022/03/28 12:35:22;;;;;;;4.97;2.33;;;;;;;;;;4955417;29;20131;-59
2022/03/28 12:38:00;;;;;;;6.18;2.72;;;;;;;;;;4955260;29;20043;-58
2022/03/28 12:40:27;;;;;;;6.30;2.67;;;;;;;;;;4954902;29;20424;-60
2022/03/28 12:42:54;;;;;;;4.47;2.50;;;;;;;;;;4955006;29;20024;-63
2022/03/28 12:45:23;;;;;;;5.72;2.70;;;;;;;;;;4954928;29;20023;-62
2022/03/28 12:48:01;;;;;;;10.68;2.88;;;;;;;;;;4955101;29;20499;-59
2022/03/28 12:50:27;;;;;;;8.23;3.05;;;;;;;;;;4955454;29;20027;-60
2022/03/28 12:53:14;;;;;;;9.55;3.30;;;;;;;;;;4954935;29;20027;-61
2022/03/28 12:55:40;;;;;;;5.82;3.30;;;;;;;;;;4955065;29;20039;-60
2022/03/28 12:58:07;;;;;;;7.15;3.60;;;;;;;;;;4954930;29;20023;-60
2022/03/28 13:00:34;;;;;;;5.28;2.88;;;;;;;;;;4954630;29;20031;-60
2022/03/28 13:03:01;;;;;;;7.25;3.45;;;;;;;;;;4954877;29;20570;-62
2022/03/28 13:05:28;;;;;;;10.02;3.17;;;;;;;;;;4954861;29;20055;-60
2022/03/28 13:08:03;;;;;;;4.18;2.75;;;;;;;;;;4954932;29;20043;-61
2022/03/28 13:10:32;;;;;;;9.40;3.17;;;;;;;;;;4954690;29;20476;-60
2022/03/28 13:12:58;;;;;;;7.05;3.20;;;;;;;;;;4952149;29;20787;-61
2022/03/28 13:15:28;;;;;;;9.73;3.40;;;;;;;;;;4953337;28;20083;-62
2022/03/28 13:18:05;;;;;;;7.95;3.15;;;;;;;;;;4970026;28;20069;-62
2022/03/28 13:20:31;;;;;;;8.90;3.10;;;;;;;;;;4944285;28;20022;-59
2022/03/28 13:22:59;;;;;;;8.57;3.47;;;;;;;;;;4964298;28;20134;-59
2022/03/28 13:25:25;;;;;;;6.25;3.38;;;;;;;;;;4966091;28;20522;-59
2022/03/28 13:28:05;;;;;;;6.78;3.30;;;;;;;;;;4957569;28;20114;-59
2022/03/28 13:30:41;;;;;;;7.45;2.92;;;;;;;;;;4943460;28;20038;-61
2022/03/28 13:33:09;;;;;;;10.55;4.40;;;;;;;;;;4963432;28;20464;-62
2022/03/28 13:35:36;;;;;;;6.80;3.58;;;;;;;;;;4967419;28;20352;-59
2022/03/28 13:38:03;;;;;;;8.05;4.05;;;;;;;;;;4957147;28;20567;-59
2022/03/28 13:40:30;;;;;;;6.95;3.50;;;;;;;;;;4968240;28;20666;-60
2022/03/28 13:42:57;;;;;;;9.10;3.40;;;;;;;;;;4961423;28;20086;-60
2022/03/28 13:45:23;;;;;;;9.55;3.50;;;;;;;;;;4946712;28;20067;-59
2022/03/28 13:47:50;;;;;;;9.85;3.80;;;;;;;;;;4953906;29;20035;-60
2022/03/28 13:50:16;;;;;;;7.47;3.47;;;;;;;;;;4969805;28;20035;-60
2022/03/28 13:52:43;;;;;;;8.85;3.47;;;;;;;;;;4960128;28;20022;-63
2022/03/28 13:55:10;;;;;;;11.57;4.82;;;;;;;;;;4963141;28;20075;-61
2022/03/28 13:57:36;;;;;;;8.63;4.10;;;;;;;;;;4967062;28;20027;-59
2022/03/28 14:00:03;;;;;;;9.73;4.05;;;;;;;;;;4972924;28;20030;-60
2022/03/28 14:02:29;;;;;;;7.55;4.15;;;;;;;;;;4973104;28;20058;-60
2022/03/28 14:04:55;;;;;;;9.10;4.15;;;;;;;;;;4973170;28;20045;-59
2022/03/28 14:07:21;;;;;;;10.30;4.22;;;;;;;;;;4973105;28;20026;-60
2022/03/28 14:09:47;;;;;;;10.45;4.47;;;;;;;;;;4973376;28;20514;-61
2022/03/28 14:12:13;;;;;;;11.43;3.90;;;;;;;;;;4972689;28;20033;-60
2022/03/28 14:14:40;;;;;;;10.52;4.47;;;;;;;;;;4973042;28;20042;-61
2022/03/28 14:17:08;;;;;;;8.38;4.60;;;;;;;;;;4972641;28;20043;-60
2022/03/28 14:19:34;;;;;;;12.10;4.68;;;;;;;;;;4972736;28;20027;-60
2022/03/28 14:22:00;;;;;;;8.55;5.00;;;;;;;;;;4973009;28;20072;-61
2022/03/28 14:24:26;;;;;;;7.53;5.10;;;;;;;;;;4972701;28;20023;-59
2022/03/28 14:26:52;;;;;;;14.93;7.25;;;;;;;;;;4972553;28;20109;-60
2022/03/28 14:29:19;;;;;;;11.98;6.57;;;;;;;;;;4972627;28;20035;-60
2022/03/28 14:31:45;;;;;;;15.80;6.15;;;;;;;;;;4972382;28;20031;-61
2022/03/28 14:34:11;;;;;;;10.65;6.22;;;;;;;;;;4972390;28;20078;-60
2022/03/28 14:36:37;;;;;;;10.57;6.00;;;;;;;;;;4972361;28;20105;-62
2022/03/28 14:39:03;;;;;;;15.50;7.40;;;;;;;;;;4972369;28;20538;-59
2022/03/28 14:41:30;;;;;;;12.10;7.57;;;;;;;;;;4972523;28;20430;-60
2022/03/28 14:43:56;;;;;;;17.00;7.38;;;;;;;;;;4972330;28;20022;-59